sensor_id;sensor_type;location;lat;lon;timestamp;P1;durP1;ratioP1;P2;durP2;ratioP2
44376;SDS011;30093;0.000;0.000;2022-09-03T00:02:59;6.85;;;1.88;;
44376;SDS011;30093;0.000;0.000;2022-09-03T00:06:57;6.30;;;1.60;;
44376;SDS011;30093;0.000;0.000;2022-09-03T00:10:53;5.65;;;1.95;;
44376;SDS011;30093;0.000;0.000;2022-09-03T00:15:17;5.55;;;2.05;;
44376;SDS011;30093;0.000;0.000;2022-09-03T00:22:57;7.82;;;2.25;;
44376;SDS011;30093;0.000;0.000;2022-09-03T00:26:51;5.85;;;2.40;;
44376;SDS011;30093;0.000;0.000;2022-09-03T00:30:44;5.80;;;2.80;;
44376;SDS011;30093;0.000;0.000;2022-09-03T00:34:41;5.78;;;2.13;;
44376;SDS011;30093;0.000;0.000;2022-09-03T00:38:34;4.85;;;2.30;;
44376;SDS011;30093;0.000;0.000;2022-09-03T00:46:32;5.13;;;2.28;;
44376;SDS011;30093;0.000;0.000;2022-09-03T00:50:44;5.18;;;2.30;;
44376;SDS011;30093;0.000;0.000;2022-09-03T00:55:07;4.80;;;2.50;;
44376;SDS011;30093;0.000;0.000;2022-09-03T00:59:40;4.97;;;2.00;;
44376;SDS011;30093;0.000;0.000;2022-09-03T01:03:49;4.93;;;2.50;;
44376;SDS011;30093;0.000;0.000;2022-09-03T01:07:48;6.55;;;2.55;;
44376;SDS011;30093;0.000;0.000;2022-09-03T01:20:06;5.00;;;2.72;;
44376;SDS011;30093;0.000;0.000;2022-09-03T01:24:21;5.45;;;2.85;;
44376;SDS011;30093;0.000;0.000;2022-09-03T01:28:48;7.28;;;2.30;;
44376;SDS011;30093;0.000;0.000;2022-09-03T01:37:05;4.90;;;2.42;;
44376;SDS011;30093;0.000;0.000;2022-09-03T01:41:10;5.97;;;2.67;;
44376;SDS011;30093;0.000;0.000;2022-09-03T01:45:52;4.35;;;2.45;;
44376;SDS011;30093;0.000;0.000;2022-09-03T01:50:01;7.07;;;3.00;;
44376;SDS011;30093;0.000;0.000;2022-09-03T02:01:46;5.40;;;2.50;;
44376;SDS011;30093;0.000;0.000;2022-09-03T02:05:46;5.30;;;2.70;;
44376;SDS011;30093;0.000;0.000;2022-09-03T02:09:37;7.03;;;2.55;;
44376;SDS011;30093;0.000;0.000;2022-09-03T02:13:37;7.70;;;2.60;;
44376;SDS011;30093;0.000;0.000;2022-09-03T02:17:27;3.92;;;2.15;;
44376;SDS011;30093;0.000;0.000;2022-09-03T02:21:17;4.60;;;2.50;;
44376;SDS011;30093;0.000;0.000;2022-09-03T02:25:08;5.60;;;2.47;;
44376;SDS011;30093;0.000;0.000;2022-09-03T02:28:57;6.63;;;3.08;;
44376;SDS011;30093;0.000;0.000;2022-09-03T02:32:48;6.45;;;2.55;;
44376;SDS011;30093;0.000;0.000;2022-09-03T02:36:37;7.85;;;2.78;;
44376;SDS011;30093;0.000;0.000;2022-09-03T02:40:28;7.40;;;4.28;;
44376;SDS011;30093;0.000;0.000;2022-09-03T02:44:20;7.03;;;3.38;;
44376;SDS011;30093;0.000;0.000;2022-09-03T02:48:15;13.85;;;3.30;;
44376;SDS011;30093;0.000;0.000;2022-09-03T02:52:08;5.05;;;2.70;;
44376;SDS011;30093;0.000;0.000;2022-09-03T02:56:02;5.90;;;2.80;;
44376;SDS011;30093;0.000;0.000;2022-09-03T02:59:49;12.00;;;2.97;;
44376;SDS011;30093;0.000;0.000;2022-09-03T03:03:38;7.35;;;3.55;;
44376;SDS011;30093;0.000;0.000;2022-09-03T03:07:28;5.57;;;2.47;;
44376;SDS011;30093;0.000;0.000;2022-09-03T03:11:22;6.70;;;3.33;;
44376;SDS011;30093;0.000;0.000;2022-09-03T03:15:13;5.47;;;2.90;;
44376;SDS011;30093;0.000;0.000;2022-09-03T03:19:01;5.85;;;2.63;;
44376;SDS011;30093;0.000;0.000;2022-09-03T03:22:50;6.28;;;3.20;;
44376;SDS011;30093;0.000;0.000;2022-09-03T03:26:38;7.50;;;2.92;;
44376;SDS011;30093;0.000;0.000;2022-09-03T03:30:27;5.65;;;2.58;;
44376;SDS011;30093;0.000;0.000;2022-09-03T03:34:16;4.88;;;2.75;;
44376;SDS011;30093;0.000;0.000;2022-09-03T03:38:05;6.80;;;2.83;;
44376;SDS011;30093;0.000;0.000;2022-09-03T03:41:53;7.32;;;2.65;;
44376;SDS011;30093;0.000;0.000;2022-09-03T03:45:54;6.72;;;2.90;;
44376;SDS011;30093;0.000;0.000;2022-09-03T03:49:44;7.20;;;3.00;;
44376;SDS011;30093;0.000;0.000;2022-09-03T03:53:32;8.93;;;3.20;;
44376;SDS011;30093;0.000;0.000;2022-09-03T03:57:22;4.95;;;3.05;;
44376;SDS011;30093;0.000;0.000;2022-09-03T04:01:15;5.88;;;3.35;;
44376;SDS011;30093;0.000;0.000;2022-09-03T04:05:09;8.15;;;3.30;;
44376;SDS011;30093;0.000;0.000;2022-09-03T04:08:58;7.80;;;3.47;;
44376;SDS011;30093;0.000;0.000;2022-09-03T04:12:47;6.82;;;3.25;;
44376;SDS011;30093;0.000;0.000;2022-09-03T04:16:36;7.03;;;3.53;;
44376;SDS011;30093;0.000;0.000;2022-09-03T04:20:24;7.75;;;3.47;;
44376;SDS011;30093;0.000;0.000;2022-09-03T04:24:12;8.55;;;3.95;;
44376;SDS011;30093;0.000;0.000;2022-09-03T04:28:01;8.77;;;3.70;;
44376;SDS011;30093;0.000;0.000;2022-09-03T04:31:51;8.77;;;3.58;;
44376;SDS011;30093;0.000;0.000;2022-09-03T04:36:02;9.07;;;4.25;;
44376;SDS011;30093;0.000;0.000;2022-09-03T04:40:12;10.15;;;4.30;;
44376;SDS011;30093;0.000;0.000;2022-09-03T04:44:01;7.70;;;5.10;;
44376;SDS011;30093;0.000;0.000;2022-09-03T04:51:44;9.63;;;3.95;;
44376;SDS011;30093;0.000;0.000;2022-09-03T04:55:33;5.82;;;3.40;;
44376;SDS011;30093;0.000;0.000;2022-09-03T04:59:23;6.57;;;3.40;;
44376;SDS011;30093;0.000;0.000;2022-09-03T05:03:11;9.55;;;4.20;;
44376;SDS011;30093;0.000;0.000;2022-09-03T05:06:59;11.85;;;3.00;;
44376;SDS011;30093;0.000;0.000;2022-09-03T05:10:48;8.30;;;3.15;;
44376;SDS011;30093;0.000;0.000;2022-09-03T05:14:37;11.98;;;3.72;;
44376;SDS011;30093;0.000;0.000;2022-09-03T05:18:26;9.33;;;4.33;;
44376;SDS011;30093;0.000;0.000;2022-09-03T05:22:16;8.77;;;5.23;;
44376;SDS011;30093;0.000;0.000;2022-09-03T05:26:09;16.33;;;6.57;;
44376;SDS011;30093;0.000;0.000;2022-09-03T05:30:00;7.85;;;3.95;;
44376;SDS011;30093;0.000;0.000;2022-09-03T05:33:49;7.43;;;4.00;;
44376;SDS011;30093;0.000;0.000;2022-09-03T05:37:39;11.50;;;3.80;;
44376;SDS011;30093;0.000;0.000;2022-09-03T05:41:28;8.70;;;3.97;;
44376;SDS011;30093;0.000;0.000;2022-09-03T05:45:17;7.13;;;3.67;;
44376;SDS011;30093;0.000;0.000;2022-09-03T05:49:05;21.45;;;12.82;;
44376;SDS011;30093;0.000;0.000;2022-09-03T05:52:54;16.23;;;9.65;;
44376;SDS011;30093;0.000;0.000;2022-09-03T05:56:42;12.25;;;4.82;;
44376;SDS011;30093;0.000;0.000;2022-09-03T06:00:30;11.75;;;4.95;;
44376;SDS011;30093;0.000;0.000;2022-09-03T06:04:19;9.63;;;4.45;;
44376;SDS011;30093;0.000;0.000;2022-09-03T06:08:06;10.75;;;4.20;;
44376;SDS011;30093;0.000;0.000;2022-09-03T06:11:55;12.27;;;4.70;;
44376;SDS011;30093;0.000;0.000;2022-09-03T06:15:43;11.45;;;5.32;;
44376;SDS011;30093;0.000;0.000;2022-09-03T06:19:32;8.73;;;3.70;;
44376;SDS011;30093;0.000;0.000;2022-09-03T06:23:20;8.70;;;5.32;;
44376;SDS011;30093;0.000;0.000;2022-09-03T06:27:10;8.63;;;4.77;;
44376;SDS011;30093;0.000;0.000;2022-09-03T06:31:01;6.50;;;4.30;;
44376;SDS011;30093;0.000;0.000;2022-09-03T06:34:54;8.07;;;4.05;;
44376;SDS011;30093;0.000;0.000;2022-09-03T06:38:43;12.23;;;4.60;;
44376;SDS011;30093;0.000;0.000;2022-09-03T06:42:32;8.80;;;4.50;;
44376;SDS011;30093;0.000;0.000;2022-09-03T06:46:25;11.73;;;3.83;;
44376;SDS011;30093;0.000;0.000;2022-09-03T06:50:14;14.63;;;9.20;;
44376;SDS011;30093;0.000;0.000;2022-09-03T06:54:06;8.13;;;3.70;;
44376;SDS011;30093;0.000;0.000;2022-09-03T06:57:57;7.78;;;4.20;;
44376;SDS011;30093;0.000;0.000;2022-09-03T07:01:45;7.78;;;4.10;;
44376;SDS011;30093;0.000;0.000;2022-09-03T07:05:34;9.73;;;3.70;;
44376;SDS011;30093;0.000;0.000;2022-09-03T07:09:22;10.18;;;4.57;;
44376;SDS011;30093;0.000;0.000;2022-09-03T07:13:12;8.57;;;3.63;;
44376;SDS011;30093;0.000;0.000;2022-09-03T07:17:00;8.70;;;4.13;;
44376;SDS011;30093;0.000;0.000;2022-09-03T07:20:49;8.98;;;3.75;;
44376;SDS011;30093;0.000;0.000;2022-09-03T07:24:36;13.65;;;4.03;;
44376;SDS011;30093;0.000;0.000;2022-09-03T07:28:27;13.57;;;6.30;;
44376;SDS011;30093;0.000;0.000;2022-09-03T07:32:16;7.13;;;3.50;;
44376;SDS011;30093;0.000;0.000;2022-09-03T07:36:05;9.43;;;3.75;;
44376;SDS011;30093;0.000;0.000;2022-09-03T07:39:56;13.55;;;4.60;;
44376;SDS011;30093;0.000;0.000;2022-09-03T07:43:45;8.93;;;3.47;;
44376;SDS011;30093;0.000;0.000;2022-09-03T07:47:34;8.93;;;3.75;;
44376;SDS011;30093;0.000;0.000;2022-09-03T07:51:24;6.77;;;3.97;;
44376;SDS011;30093;0.000;0.000;2022-09-03T07:55:15;10.98;;;4.00;;
44376;SDS011;30093;0.000;0.000;2022-09-03T07:59:04;9.02;;;3.50;;
44376;SDS011;30093;0.000;0.000;2022-09-03T08:02:52;5.03;;;3.10;;
44376;SDS011;30093;0.000;0.000;2022-09-03T08:06:43;8.30;;;3.58;;
44376;SDS011;30093;0.000;0.000;2022-09-03T08:10:34;8.93;;;4.28;;
44376;SDS011;30093;0.000;0.000;2022-09-03T08:14:24;8.52;;;4.07;;
44376;SDS011;30093;0.000;0.000;2022-09-03T08:18:12;9.93;;;3.70;;
44376;SDS011;30093;0.000;0.000;2022-09-03T08:26:00;8.43;;;3.17;;
44376;SDS011;30093;0.000;0.000;2022-09-03T08:29:49;5.93;;;3.40;;
44376;SDS011;30093;0.000;0.000;2022-09-03T08:33:37;8.70;;;3.03;;
44376;SDS011;30093;0.000;0.000;2022-09-03T08:37:29;5.57;;;2.95;;
44376;SDS011;30093;0.000;0.000;2022-09-03T08:45:18;8.25;;;3.42;;
44376;SDS011;30093;0.000;0.000;2022-09-03T08:49:08;9.35;;;3.08;;
44376;SDS011;30093;0.000;0.000;2022-09-03T08:57:10;6.40;;;2.58;;
44376;SDS011;30093;0.000;0.000;2022-09-03T09:01:06;7.53;;;3.75;;
44376;SDS011;30093;0.000;0.000;2022-09-03T09:05:16;5.68;;;2.83;;
44376;SDS011;30093;0.000;0.000;2022-09-03T09:09:22;7.00;;;3.05;;
44376;SDS011;30093;0.000;0.000;2022-09-03T09:13:50;6.03;;;3.58;;
44376;SDS011;30093;0.000;0.000;2022-09-03T09:21:45;6.72;;;3.80;;
44376;SDS011;30093;0.000;0.000;2022-09-03T09:25:48;7.38;;;3.20;;
44376;SDS011;30093;0.000;0.000;2022-09-03T09:29:37;6.10;;;3.00;;
44376;SDS011;30093;0.000;0.000;2022-09-03T09:33:28;6.97;;;3.20;;
44376;SDS011;30093;0.000;0.000;2022-09-03T09:37:18;9.60;;;2.97;;
44376;SDS011;30093;0.000;0.000;2022-09-03T09:45:07;7.57;;;3.05;;
44376;SDS011;30093;0.000;0.000;2022-09-03T09:48:57;5.72;;;2.78;;
44376;SDS011;30093;0.000;0.000;2022-09-03T09:52:46;9.45;;;3.15;;
44376;SDS011;30093;0.000;0.000;2022-09-03T09:56:34;4.97;;;2.78;;
44376;SDS011;30093;0.000;0.000;2022-09-03T10:00:23;6.35;;;2.95;;
44376;SDS011;30093;0.000;0.000;2022-09-03T10:08:19;7.07;;;2.65;;
44376;SDS011;30093;0.000;0.000;2022-09-03T10:16:14;6.20;;;2.55;;
44376;SDS011;30093;0.000;0.000;2022-09-03T10:20:18;6.43;;;2.85;;
44376;SDS011;30093;0.000;0.000;2022-09-03T10:28:50;4.70;;;2.33;;
44376;SDS011;30093;0.000;0.000;2022-09-03T10:37:25;6.57;;;2.42;;
44376;SDS011;30093;0.000;0.000;2022-09-03T10:50:01;7.85;;;2.17;;
44376;SDS011;30093;0.000;0.000;2022-09-03T10:54:05;5.03;;;2.17;;
44376;SDS011;30093;0.000;0.000;2022-09-03T11:06:23;5.93;;;2.20;;
44376;SDS011;30093;0.000;0.000;2022-09-03T11:14:19;5.35;;;2.10;;
44376;SDS011;30093;0.000;0.000;2022-09-03T11:18:28;5.22;;;2.13;;
44376;SDS011;30093;0.000;0.000;2022-09-03T11:22:30;6.70;;;2.45;;
44376;SDS011;30093;0.000;0.000;2022-09-03T11:26:19;4.32;;;2.20;;
44376;SDS011;30093;0.000;0.000;2022-09-03T11:30:11;5.05;;;1.92;;
44376;SDS011;30093;0.000;0.000;2022-09-03T11:34:06;4.05;;;2.00;;
44376;SDS011;30093;0.000;0.000;2022-09-03T11:38:21;6.43;;;1.73;;
44376;SDS011;30093;0.000;0.000;2022-09-03T11:42:34;7.22;;;2.20;;
44376;SDS011;30093;0.000;0.000;2022-09-03T11:46:27;3.83;;;2.03;;
44376;SDS011;30093;0.000;0.000;2022-09-03T11:50:26;4.65;;;1.80;;
44376;SDS011;30093;0.000;0.000;2022-09-03T11:58:11;7.03;;;2.00;;
44376;SDS011;30093;0.000;0.000;2022-09-03T12:19:10;3.92;;;2.30;;
44376;SDS011;30093;0.000;0.000;2022-09-03T12:23:43;3.17;;;1.60;;
44376;SDS011;30093;0.000;0.000;2022-09-03T12:27:36;6.03;;;2.28;;
44376;SDS011;30093;0.000;0.000;2022-09-03T12:35:20;4.05;;;2.28;;
44376;SDS011;30093;0.000;0.000;2022-09-03T12:39:15;10.55;;;2.85;;
44376;SDS011;30093;0.000;0.000;2022-09-03T12:43:12;4.22;;;2.30;;
44376;SDS011;30093;0.000;0.000;2022-09-03T12:51:00;4.65;;;2.72;;
44376;SDS011;30093;0.000;0.000;2022-09-03T12:59:22;4.55;;;2.60;;
44376;SDS011;30093;0.000;0.000;2022-09-03T13:03:18;3.75;;;2.58;;
44376;SDS011;30093;0.000;0.000;2022-09-03T13:11:17;7.35;;;2.90;;
44376;SDS011;30093;0.000;0.000;2022-09-03T13:15:10;11.27;;;5.35;;
44376;SDS011;30093;0.000;0.000;2022-09-03T13:39:27;3.15;;;2.20;;
44376;SDS011;30093;0.000;0.000;2022-09-03T13:51:57;6.03;;;4.85;;
44376;SDS011;30093;0.000;0.000;2022-09-03T13:55:54;6.97;;;3.08;;
44376;SDS011;30093;0.000;0.000;2022-09-03T13:59:55;8.20;;;5.65;;
44376;SDS011;30093;0.000;0.000;2022-09-03T14:03:56;5.68;;;2.63;;
44376;SDS011;30093;0.000;0.000;2022-09-03T14:28:32;5.10;;;3.00;;
44376;SDS011;30093;0.000;0.000;2022-09-03T14:36:53;14.05;;;9.65;;
44376;SDS011;30093;0.000;0.000;2022-09-03T14:45:22;4.13;;;3.15;;
44376;SDS011;30093;0.000;0.000;2022-09-03T15:02:14;4.50;;;3.28;;
44376;SDS011;30093;0.000;0.000;2022-09-03T15:10:51;3.05;;;2.42;;
44376;SDS011;30093;0.000;0.000;2022-09-03T15:23:06;3.38;;;2.83;;
44376;SDS011;30093;0.000;0.000;2022-09-03T15:27:36;4.85;;;3.13;;
44376;SDS011;30093;0.000;0.000;2022-09-03T15:39:24;9.70;;;3.78;;
44376;SDS011;30093;0.000;0.000;2022-09-03T15:43:24;5.93;;;2.72;;
44376;SDS011;30093;0.000;0.000;2022-09-03T15:48:04;4.63;;;3.25;;
44376;SDS011;30093;0.000;0.000;2022-09-03T15:51:32;4.53;;;3.30;;
44376;SDS011;30093;0.000;0.000;2022-09-03T15:55:39;5.50;;;3.20;;
44376;SDS011;30093;0.000;0.000;2022-09-03T16:07:38;8.20;;;3.35;;
44376;SDS011;30093;0.000;0.000;2022-09-03T16:11:51;4.38;;;3.42;;
44376;SDS011;30093;0.000;0.000;2022-09-03T16:16:05;6.93;;;3.58;;
44376;SDS011;30093;0.000;0.000;2022-09-03T16:24:25;7.93;;;3.38;;
44376;SDS011;30093;0.000;0.000;2022-09-03T16:32:23;5.85;;;3.72;;
44376;SDS011;30093;0.000;0.000;2022-09-03T16:36:26;5.25;;;3.70;;
44376;SDS011;30093;0.000;0.000;2022-09-03T16:45:18;8.43;;;4.85;;
44376;SDS011;30093;0.000;0.000;2022-09-03T16:53:20;24.38;;;16.23;;
44376;SDS011;30093;0.000;0.000;2022-09-03T17:01:36;22.55;;;16.15;;
44376;SDS011;30093;0.000;0.000;2022-09-03T17:09:57;14.50;;;9.88;;
44376;SDS011;30093;0.000;0.000;2022-09-03T17:14:03;12.05;;;9.90;;
44376;SDS011;30093;0.000;0.000;2022-09-03T17:30:57;11.15;;;7.35;;
44376;SDS011;30093;0.000;0.000;2022-09-03T17:34:59;10.55;;;6.45;;
44376;SDS011;30093;0.000;0.000;2022-09-03T17:56:00;44.22;;;34.25;;
44376;SDS011;30093;0.000;0.000;2022-09-03T18:08:05;9.80;;;6.53;;
44376;SDS011;30093;0.000;0.000;2022-09-03T18:12:12;10.55;;;6.10;;
44376;SDS011;30093;0.000;0.000;2022-09-03T18:16:28;9.32;;;6.07;;
44376;SDS011;30093;0.000;0.000;2022-09-03T18:20:20;9.15;;;6.07;;
44376;SDS011;30093;0.000;0.000;2022-09-03T18:24:30;6.38;;;5.05;;
44376;SDS011;30093;0.000;0.000;2022-09-03T18:29:15;8.55;;;5.63;;
44376;SDS011;30093;0.000;0.000;2022-09-03T18:33:22;12.70;;;7.90;;
44376;SDS011;30093;0.000;0.000;2022-09-03T18:37:29;11.95;;;7.75;;
44376;SDS011;30093;0.000;0.000;2022-09-03T18:46:12;11.45;;;7.75;;
44376;SDS011;30093;0.000;0.000;2022-09-03T18:50:27;15.07;;;7.70;;
44376;SDS011;30093;0.000;0.000;2022-09-03T18:54:56;19.08;;;9.65;;
44376;SDS011;30093;0.000;0.000;2022-09-03T19:22:09;14.57;;;10.27;;
44376;SDS011;30093;0.000;0.000;2022-09-03T19:26:43;16.30;;;11.00;;
44376;SDS011;30093;0.000;0.000;2022-09-03T19:35:36;18.58;;;9.98;;
44376;SDS011;30093;0.000;0.000;2022-09-03T19:44:21;14.57;;;10.00;;
44376;SDS011;30093;0.000;0.000;2022-09-03T19:53:12;21.85;;;13.77;;
44376;SDS011;30093;0.000;0.000;2022-09-03T19:57:22;27.33;;;16.83;;
44376;SDS011;30093;0.000;0.000;2022-09-03T20:01:33;29.25;;;19.55;;
44376;SDS011;30093;0.000;0.000;2022-09-03T20:05:42;24.73;;;18.23;;
44376;SDS011;30093;0.000;0.000;2022-09-03T20:09:50;33.95;;;20.90;;
44376;SDS011;30093;0.000;0.000;2022-09-03T20:13:59;29.00;;;17.90;;
44376;SDS011;30093;0.000;0.000;2022-09-03T20:18:06;29.73;;;17.98;;
44376;SDS011;30093;0.000;0.000;2022-09-03T20:22:08;23.80;;;16.60;;
44376;SDS011;30093;0.000;0.000;2022-09-03T20:30:07;19.30;;;12.57;;
44376;SDS011;30093;0.000;0.000;2022-09-03T20:34:21;18.80;;;12.35;;
44376;SDS011;30093;0.000;0.000;2022-09-03T20:47:08;14.90;;;11.52;;
44376;SDS011;30093;0.000;0.000;2022-09-03T20:51:12;18.48;;;11.18;;
44376;SDS011;30093;0.000;0.000;2022-09-03T20:55:08;16.85;;;10.52;;
44376;SDS011;30093;0.000;0.000;2022-09-03T20:59:25;17.75;;;10.82;;
44376;SDS011;30093;0.000;0.000;2022-09-03T21:21:16;17.63;;;10.70;;
44376;SDS011;30093;0.000;0.000;2022-09-03T21:25:44;17.55;;;11.10;;
44376;SDS011;30093;0.000;0.000;2022-09-03T21:29:41;11.98;;;10.43;;
44376;SDS011;30093;0.000;0.000;2022-09-03T21:33:34;16.42;;;9.88;;
44376;SDS011;30093;0.000;0.000;2022-09-03T21:37:26;14.75;;;10.73;;
44376;SDS011;30093;0.000;0.000;2022-09-03T21:41:21;16.33;;;11.25;;
44376;SDS011;30093;0.000;0.000;2022-09-03T21:49:16;13.98;;;11.55;;
44376;SDS011;30093;0.000;0.000;2022-09-03T21:53:31;13.75;;;10.88;;
44376;SDS011;30093;0.000;0.000;2022-09-03T22:05:22;15.55;;;11.98;;
44376;SDS011;30093;0.000;0.000;2022-09-03T22:09:22;19.02;;;12.52;;
44376;SDS011;30093;0.000;0.000;2022-09-03T22:17:10;16.10;;;11.80;;
44376;SDS011;30093;0.000;0.000;2022-09-03T22:21:16;14.65;;;11.45;;
44376;SDS011;30093;0.000;0.000;2022-09-03T22:25:43;15.48;;;12.60;;
44376;SDS011;30093;0.000;0.000;2022-09-03T22:47:10;17.20;;;12.70;;
44376;SDS011;30093;0.000;0.000;2022-09-03T22:51:18;13.35;;;11.88;;
44376;SDS011;30093;0.000;0.000;2022-09-03T22:55:18;15.27;;;12.25;;
44376;SDS011;30093;0.000;0.000;2022-09-03T23:03:20;17.17;;;13.77;;
44376;SDS011;30093;0.000;0.000;2022-09-03T23:07:21;15.48;;;12.80;;
44376;SDS011;30093;0.000;0.000;2022-09-03T23:11:13;14.35;;;12.43;;
44376;SDS011;30093;0.000;0.000;2022-09-03T23:15:20;19.05;;;13.43;;
44376;SDS011;30093;0.000;0.000;2022-09-03T23:19:31;16.38;;;12.48;;
44376;SDS011;30093;0.000;0.000;2022-09-03T23:23:34;19.25;;;13.95;;
44376;SDS011;30093;0.000;0.000;2022-09-03T23:27:36;18.60;;;13.70;;
44376;SDS011;30093;0.000;0.000;2022-09-03T23:31:31;16.00;;;12.23;;
44376;SDS011;30093;0.000;0.000;2022-09-03T23:35:29;16.10;;;12.23;;
44376;SDS011;30093;0.000;0.000;2022-09-03T23:39:34;15.13;;;13.00;;
44376;SDS011;30093;0.000;0.000;2022-09-03T23:48:04;16.25;;;11.77;;
